createdAt,value
2018-01-22T00:00:43.977Z,86.33
2018-01-22T00:01:44.136Z,86.49
2018-01-22T00:02:43.966Z,86.71
2018-01-22T00:03:44.060Z,86.6
2018-01-22T00:04:44.052Z,87.22
2018-01-22T00:05:44.098Z,87.4
2018-01-22T00:06:43.971Z,87.22
2018-01-22T00:07:44.000Z,87.06
2018-01-22T00:08:44.131Z,87.36
2018-01-22T00:09:44.240Z,87.08
2018-01-22T00:10:44.266Z,87.41
2018-01-22T00:11:44.045Z,87.46
2018-01-22T00:12:44.018Z,87.49
2018-01-22T00:13:44.025Z,87.72
2018-01-22T00:14:44.030Z,87.94
2018-01-22T00:15:44.195Z,87.78
2018-01-22T00:16:45.464Z,87.56
2018-01-22T00:17:44.034Z,87.29
2018-01-22T00:18:44.331Z,87.49
2018-01-22T00:19:45.412Z,88.08
2018-01-22T00:20:44.687Z,87.56
2018-01-22T00:21:46.744Z,87.71
2018-01-22T00:22:44.020Z,88.15
2018-01-22T00:23:44.053Z,88.03
2018-01-22T00:24:44.049Z,87.82
2018-01-22T00:25:44.035Z,87.82
2018-01-22T00:26:44.245Z,87.68
2018-01-22T00:27:44.055Z,87.92
2018-01-22T00:28:46.273Z,88.15
2018-01-22T00:29:44.231Z,88.8
2018-01-22T00:30:44.282Z,88.12
2018-01-22T00:31:44.067Z,88.4
2018-01-22T00:32:44.010Z,88.75
2018-01-22T00:33:44.035Z,88.57
2018-01-22T00:34:44.215Z,88.33
2018-01-22T00:35:44.248Z,88.61
2018-01-22T00:36:44.200Z,88.32
2018-01-22T00:37:44.196Z,88.32
2018-01-22T00:38:44.199Z,88.59
2018-01-22T00:39:44.205Z,89.23
2018-01-22T00:40:44.125Z,89.45
2018-01-22T00:41:45.366Z,89.08
2018-01-22T00:42:44.193Z,89.43
2018-01-22T00:43:44.206Z,89.47
2018-01-22T00:44:44.122Z,89.37
2018-01-22T00:45:44.132Z,89.15
2018-01-22T00:46:44.181Z,89.69
2018-01-22T00:47:44.266Z,89.51
2018-01-22T00:48:44.183Z,89.56
2018-01-22T00:49:44.202Z,89.22
2018-01-22T00:50:44.342Z,89.72
2018-01-22T00:51:44.244Z,89.64
2018-01-22T00:52:44.138Z,89.55
2018-01-22T00:53:44.370Z,89.73
2018-01-22T00:54:44.403Z,89.55
2018-01-22T00:55:44.365Z,90.35
2018-01-22T00:56:44.473Z,89.93
2018-01-22T00:57:44.293Z,90.01
2018-01-22T00:58:44.212Z,90
2018-01-22T00:59:44.256Z,90.25
2018-01-22T01:00:44.123Z,90.44
2018-01-22T01:01:44.205Z,90.21
2018-01-22T01:02:44.220Z,90.37
2018-01-22T01:03:44.249Z,90.46
2018-01-22T01:04:44.365Z,90.64
2018-01-22T01:05:44.259Z,90.7
2018-01-22T01:06:44.351Z,90.61
2018-01-22T01:07:44.281Z,90.5
2018-01-22T01:09:44.675Z,90.96
2018-01-22T01:10:44.289Z,91.16
2018-01-22T01:11:44.265Z,91.24
2018-01-22T01:12:45.049Z,91.08
2018-01-22T01:13:44.325Z,91.29
2018-01-22T01:14:44.540Z,91.67
2018-01-22T01:15:44.320Z,91.46
2018-01-22T01:16:44.459Z,91.14
2018-01-22T01:17:44.222Z,91.36
2018-01-22T01:18:44.275Z,91.64
2018-01-22T01:19:44.284Z,91.24
2018-01-22T01:20:44.360Z,91.25
2018-01-22T01:21:44.470Z,91.5
2018-01-22T01:22:44.295Z,91.34
2018-01-22T01:23:44.417Z,91.52
2018-01-22T01:24:44.438Z,91.31
2018-01-22T01:25:44.324Z,91.99
2018-01-22T01:26:44.504Z,91.3
2018-01-22T01:27:44.248Z,91.75
2018-01-22T01:28:44.430Z,91.68
2018-01-22T01:29:45.189Z,91.84
2018-01-22T01:30:45.044Z,91.6
2018-01-22T01:31:44.308Z,91.34
2018-01-22T01:32:44.378Z,91.78
2018-01-22T01:33:44.611Z,91.83
2018-01-22T01:34:44.416Z,91.57
2018-01-22T01:35:44.332Z,91.98
2018-01-22T01:36:44.274Z,92.81
2018-01-22T01:37:44.691Z,92.1
2018-01-22T01:40:01.314Z,91.99
2018-01-22T01:40:44.644Z,92.2
2018-01-22T01:41:44.393Z,92.11
2018-01-22T01:42:44.534Z,92.28
2018-01-22T01:45:44.915Z,92.16
2018-01-22T01:46:44.262Z,91.97
2018-01-22T01:47:44.343Z,92.41
2018-01-22T01:48:44.315Z,92.39
2018-01-22T01:49:44.279Z,92.3
2018-01-22T01:50:44.400Z,92.6
2018-01-22T01:51:45.124Z,92.56
2018-01-22T01:52:44.315Z,92.71
2018-01-22T01:53:44.295Z,92.56
2018-01-22T01:54:44.662Z,92.57
2018-01-22T01:55:44.322Z,92.84
2018-01-22T01:56:44.305Z,92.73
2018-01-22T01:57:44.313Z,92.95
2018-01-22T01:58:44.356Z,93.29
2018-01-22T01:59:44.373Z,92.73
2018-01-22T02:00:44.289Z,92.94
2018-01-22T02:01:44.347Z,93.29
2018-01-22T02:02:44.511Z,93.56
2018-01-22T02:03:45.220Z,93.45
2018-01-22T02:04:44.410Z,93.08
2018-01-22T02:05:44.322Z,93.22
2018-01-22T02:06:44.633Z,93.26
2018-01-22T02:07:44.329Z,93.67
2018-01-22T02:08:45.397Z,93.4
2018-01-22T02:09:44.332Z,93.49
2018-01-22T02:10:45.037Z,93.87
2018-01-22T02:11:44.494Z,94.06
2018-01-22T02:12:44.541Z,93.57
2018-01-22T02:13:44.369Z,93.6
2018-01-22T02:14:44.416Z,93.74
2018-01-22T02:15:44.417Z,93.85
2018-01-22T02:16:44.387Z,93.84
2018-01-22T02:17:44.371Z,94.07
2018-01-22T02:18:44.320Z,93.99
2018-01-22T02:19:45.140Z,93.92
2018-01-22T02:20:44.392Z,94
2018-01-22T02:21:44.399Z,94.02
2018-01-22T02:25:05.039Z,94.03
2018-01-22T02:25:44.459Z,93.99
2018-01-22T02:27:44.409Z,94.15
2018-01-22T02:28:44.354Z,94.3
2018-01-22T02:29:44.531Z,94.06
2018-01-22T02:30:44.358Z,93.97
2018-01-22T02:31:44.368Z,93.97
2018-01-22T02:32:44.348Z,94.29
2018-01-22T02:33:44.335Z,94.25
2018-01-22T02:34:44.606Z,94.2
2018-01-22T02:35:44.419Z,94.28
2018-01-22T02:36:44.450Z,94.45
2018-01-22T02:37:45.148Z,94.21
2018-01-22T02:38:44.431Z,94.42
2018-01-22T02:39:44.677Z,94.3
2018-01-22T02:40:45.154Z,94.34
2018-01-22T02:41:44.423Z,94.12
2018-01-22T02:42:44.586Z,94.2
2018-01-22T02:43:44.425Z,94.5
2018-01-22T02:44:44.452Z,94.29
2018-01-22T02:47:44.435Z,94.29
2018-01-22T02:48:44.544Z,94.47
2018-01-22T02:49:45.019Z,94.5
2018-01-22T02:50:44.396Z,94.39
2018-01-22T02:51:44.389Z,94.36
2018-01-22T02:52:44.439Z,94.5
2018-01-22T02:53:44.414Z,94.02
2018-01-22T02:54:44.487Z,94.22
2018-01-22T02:55:45.408Z,94.4
2018-01-22T02:56:44.428Z,94.45
2018-01-22T02:57:44.570Z,94.42
2018-01-22T02:58:45.130Z,94.34
2018-01-22T02:59:44.401Z,94.47
2018-01-22T03:00:44.422Z,94.21
2018-01-22T03:01:45.110Z,94.07
2018-01-22T03:02:45.074Z,93.74
2018-01-22T03:03:44.448Z,94.25
2018-01-22T03:04:44.482Z,94.52
2018-01-22T03:05:44.453Z,94.24
2018-01-22T03:06:44.464Z,94.43
2018-01-22T03:08:45.248Z,94.37
2018-01-22T03:09:44.438Z,94.43
2018-01-22T03:10:44.428Z,94.79
2018-01-22T03:11:44.436Z,94.43
2018-01-22T03:12:44.709Z,94.6
2018-01-22T03:13:44.485Z,94.7
2018-01-22T03:14:44.417Z,94.41
2018-01-22T03:15:44.425Z,94.34
2018-01-22T03:16:44.406Z,94.13
2018-01-22T03:17:44.408Z,94.42
2018-01-22T03:18:44.563Z,94.32
2018-01-22T03:21:44.655Z,94.58
2018-01-22T03:22:44.422Z,94.5
2018-01-22T03:23:44.494Z,94.13
2018-01-22T03:24:44.437Z,94.51
2018-01-22T03:25:44.440Z,94.41
2018-01-22T03:26:44.436Z,94.37
2018-01-22T03:27:44.423Z,94.33
2018-01-22T03:28:44.455Z,94.27
2018-01-22T03:29:44.489Z,94.43
2018-01-22T03:30:44.447Z,94.49
2018-01-22T03:31:44.423Z,94.45
2018-01-22T03:32:44.459Z,94.62
2018-01-22T03:33:44.481Z,94.53
2018-01-22T03:34:44.548Z,94.58
2018-01-22T03:35:44.437Z,94.71
2018-01-22T03:36:44.458Z,94.85
2018-01-22T03:37:44.453Z,95.01
2018-01-22T03:38:44.509Z,94.72
2018-01-22T03:39:44.460Z,94.73
2018-01-22T03:40:44.473Z,94.64
2018-01-22T03:41:44.462Z,94.82
2018-01-22T03:43:44.542Z,95.32
2018-01-22T03:44:44.482Z,95.17
2018-01-22T03:47:44.684Z,94.83
2018-01-22T03:48:44.476Z,94.76
2018-01-22T03:49:44.440Z,95.04
2018-01-22T03:50:44.439Z,95.03
2018-01-22T03:51:44.474Z,94.78
2018-01-22T03:52:44.502Z,95.53
2018-01-22T03:53:44.495Z,94.81
2018-01-22T03:54:44.428Z,94.96
2018-01-22T03:55:44.500Z,94.92
2018-01-22T03:56:44.529Z,94.91
2018-01-22T03:57:44.846Z,94.98
2018-01-22T03:58:44.494Z,94.97
2018-01-22T03:59:44.478Z,95.23
2018-01-22T04:00:44.527Z,95.13
2018-01-22T04:01:44.492Z,94.94
2018-01-22T04:02:44.554Z,95
2018-01-22T04:03:44.494Z,95.04
2018-01-22T04:04:44.500Z,95.12
2018-01-22T04:05:44.447Z,95
2018-01-22T04:06:44.454Z,95
2018-01-22T04:07:44.509Z,94.96
2018-01-22T04:08:44.553Z,95.19
2018-01-22T04:09:44.538Z,95.33
2018-01-22T04:10:44.529Z,95.05
2018-01-22T04:11:44.487Z,94.98
2018-01-22T04:12:44.527Z,95.23
2018-01-22T04:13:44.557Z,95.09
2018-01-22T04:14:44.528Z,95.01
2018-01-22T04:15:44.530Z,95.05
2018-01-22T04:16:44.515Z,95.17
2018-01-22T04:17:44.482Z,95.31
2018-01-22T04:18:44.533Z,95.21
2018-01-22T04:21:44.477Z,94.78
2018-01-22T04:22:44.510Z,94.86
2018-01-22T04:25:52.077Z,94.79
2018-01-22T04:28:44.555Z,94.83
2018-01-22T04:29:44.564Z,95.06
2018-01-22T04:30:44.469Z,95.06
2018-01-22T04:31:44.465Z,95.09
2018-01-22T04:32:44.535Z,95.18
2018-01-22T04:33:44.518Z,94.89
2018-01-22T04:34:44.611Z,94.93
2018-01-22T04:35:44.605Z,94.68
2018-01-22T04:36:44.529Z,94.87
2018-01-22T04:37:44.576Z,94.93
2018-01-22T04:38:44.567Z,94.97
2018-01-22T04:39:44.545Z,94.67
2018-01-22T04:40:44.505Z,94.68
2018-01-22T04:41:44.481Z,94.82
2018-01-22T04:42:44.546Z,94.81
2018-01-22T04:43:44.572Z,94.83
2018-01-22T04:44:44.568Z,94.58
2018-01-22T04:45:44.542Z,94.6
2018-01-22T04:48:44.590Z,94.7
2018-01-22T04:49:44.562Z,94.65
2018-01-22T04:50:44.588Z,94.74
2018-01-22T04:51:44.576Z,94.51
2018-01-22T04:52:44.575Z,94.66
2018-01-22T04:53:44.590Z,94.81
2018-01-22T04:54:44.935Z,94.92
2018-01-22T04:55:45.044Z,94.83
2018-01-22T04:56:44.564Z,94.66
2018-01-22T04:57:44.516Z,94.5
2018-01-22T05:00:44.589Z,94.47
2018-01-22T05:01:44.548Z,94.49
2018-01-22T05:02:44.555Z,94.62
2018-01-22T05:03:44.630Z,94.55
2018-01-22T05:04:44.581Z,94.47
2018-01-22T05:05:44.588Z,94.43
2018-01-22T05:06:44.567Z,94.62
2018-01-22T05:07:44.566Z,94.8
2018-01-22T05:08:44.546Z,94.74
2018-01-22T05:09:46.054Z,94.85
2018-01-22T05:10:44.752Z,94.92
2018-01-22T05:11:44.718Z,94.65
2018-01-22T05:12:44.603Z,94.72
2018-01-22T05:13:44.610Z,94.77
2018-01-22T05:14:44.601Z,94.99
2018-01-22T05:15:44.578Z,95.16
2018-01-22T05:16:44.551Z,95.04
2018-01-22T05:17:44.551Z,95.15
2018-01-22T05:18:44.640Z,95.34
2018-01-22T05:19:44.634Z,95.21
2018-01-22T05:20:44.561Z,95.41
2018-01-22T05:21:44.619Z,95.17
2018-01-22T05:22:44.588Z,95.43
2018-01-22T05:23:44.582Z,95.31
2018-01-22T05:24:44.551Z,95.38
2018-01-22T05:25:44.570Z,95.35
2018-01-22T05:26:44.595Z,95.49
2018-01-22T05:27:44.595Z,95.38
2018-01-22T05:28:44.599Z,95.45
2018-01-22T05:29:44.607Z,95.38
2018-01-22T05:30:44.604Z,95.41
2018-01-22T05:31:44.564Z,95.63
2018-01-22T05:32:44.626Z,96.17
2018-01-22T05:33:44.574Z,95.44
2018-01-22T05:34:44.617Z,95.34
2018-01-22T05:35:44.603Z,95.61
2018-01-22T05:36:45.549Z,95.53
2018-01-22T05:37:44.618Z,95.56
2018-01-22T05:38:44.597Z,95.39
2018-01-22T05:39:44.602Z,95.41
2018-01-22T05:40:44.695Z,95.43
2018-01-22T05:41:44.620Z,95.51
2018-01-22T05:42:44.580Z,95.44
2018-01-22T05:43:44.598Z,95.44
2018-01-22T05:44:44.603Z,95.27
2018-01-22T05:45:44.713Z,95.44
2018-01-22T05:46:44.655Z,95.46
2018-01-22T05:47:44.674Z,95.52
2018-01-22T05:48:44.685Z,95.45
2018-01-22T05:49:44.599Z,95.4
2018-01-22T05:50:44.650Z,95.36
2018-01-22T05:51:44.603Z,95.62
2018-01-22T05:52:45.117Z,95.32
2018-01-22T05:53:44.631Z,95.6
2018-01-22T05:54:44.631Z,95.44
2018-01-22T05:55:44.623Z,95.59
2018-01-22T05:56:44.657Z,95.35
2018-01-22T05:57:44.639Z,95.58
2018-01-22T05:58:44.657Z,95.47
2018-01-22T05:59:44.635Z,95.27
2018-01-22T06:00:44.612Z,95.24
2018-01-22T06:01:44.608Z,95.21
2018-01-22T06:02:45.051Z,95.59
2018-01-22T06:03:44.601Z,95.57
2018-01-22T06:04:44.673Z,95.67
2018-01-22T06:05:44.665Z,95.6
2018-01-22T06:06:44.667Z,95.46
2018-01-22T06:07:44.727Z,95.53
2018-01-22T06:08:44.695Z,95.5
2018-01-22T06:09:44.603Z,95.56
2018-01-22T06:10:44.633Z,95.57
2018-01-22T06:11:44.640Z,95.6
2018-01-22T06:12:44.655Z,95.75
2018-01-22T06:13:44.636Z,96.08
2018-01-22T06:14:44.707Z,95.81
2018-01-22T06:15:44.675Z,95.97
2018-01-22T06:16:44.671Z,95.93
2018-01-22T06:17:44.844Z,95.7
2018-01-22T06:18:44.681Z,95.91
2018-01-22T06:19:44.663Z,95.9
2018-01-22T06:20:44.671Z,96.2
2018-01-22T06:21:44.641Z,96.27
2018-01-22T06:22:44.818Z,96.08
2018-01-22T06:23:44.676Z,96.15
2018-01-22T06:24:44.639Z,96.16
2018-01-22T06:25:44.717Z,96.07
2018-01-22T06:26:44.649Z,96.46
2018-01-22T06:28:44.859Z,96.32
2018-01-22T06:29:44.660Z,96.35
2018-01-22T06:30:44.715Z,96.31
2018-01-22T06:31:44.643Z,96.39
2018-01-22T06:32:44.634Z,96.28
2018-01-22T06:33:44.635Z,96.54
2018-01-22T06:34:44.694Z,96.48
2018-01-22T06:35:44.751Z,96.53
2018-01-22T06:36:44.705Z,96.68
2018-01-22T06:37:44.726Z,96.55
2018-01-22T06:38:44.721Z,96.47
2018-01-22T06:39:44.810Z,96.74
2018-01-22T06:40:44.668Z,96.42
2018-01-22T06:41:44.776Z,96.43
2018-01-22T06:42:44.761Z,96.54
2018-01-22T06:43:44.695Z,96.67
2018-01-22T06:44:44.762Z,96.74
2018-01-22T06:45:44.795Z,96.74
2018-01-22T06:46:44.877Z,96.97
2018-01-22T06:47:44.763Z,96.73
2018-01-22T06:48:44.737Z,96.79
2018-01-22T06:49:44.728Z,97.16
2018-01-22T06:50:44.682Z,96.96
2018-01-22T06:51:44.744Z,97.16
2018-01-22T06:52:44.859Z,97.11
2018-01-22T06:53:44.763Z,97.27
2018-01-22T06:54:44.737Z,97
2018-01-22T06:55:44.775Z,97.18
2018-01-22T06:56:44.790Z,97.49
2018-01-22T06:57:44.736Z,97.25
2018-01-22T06:58:44.795Z,96.99
2018-01-22T07:02:44.771Z,97.31
2018-01-22T07:03:44.859Z,97.19
2018-01-22T07:04:44.889Z,97.34
2018-01-22T07:05:43.760Z,97.28
2018-01-22T07:06:43.771Z,97.16
2018-01-22T07:07:44.356Z,97.23
2018-01-22T07:08:43.829Z,97.25
2018-01-22T07:09:44.205Z,97.11
2018-01-22T07:10:43.851Z,96.9
2018-01-22T07:11:43.769Z,96.92
2018-01-22T07:12:43.805Z,97.15
2018-01-22T07:13:43.793Z,97.05
2018-01-22T07:17:10.831Z,96.9
2018-01-22T07:17:43.760Z,96.97
2018-01-22T07:18:43.753Z,97.31
2018-01-22T07:19:45.598Z,97.23
2018-01-22T07:20:43.724Z,97.3
2018-01-22T07:21:43.799Z,97.22
2018-01-22T07:22:43.768Z,97.01
2018-01-22T07:23:43.750Z,96.79
2018-01-22T07:24:43.869Z,96.72
2018-01-22T07:25:43.760Z,96.74
2018-01-22T07:26:43.786Z,96.63
2018-01-22T07:27:43.792Z,96.69
2018-01-22T07:28:44.059Z,96.59
2018-01-22T07:29:43.858Z,96.6
2018-01-22T07:30:44.493Z,96.86
2018-01-22T07:31:43.874Z,97.09
2018-01-22T07:32:43.811Z,96.93
2018-01-22T07:33:43.974Z,97.07
2018-01-22T07:34:43.796Z,97.28
2018-01-22T07:37:43.932Z,97.25
2018-01-22T07:38:44.367Z,97.39
2018-01-22T07:39:43.923Z,97.45
2018-01-22T07:40:43.821Z,97.5
2018-01-22T07:41:43.833Z,97.49
2018-01-22T07:42:43.835Z,97.32
2018-01-22T07:43:43.879Z,97.26
2018-01-22T07:44:43.906Z,97.23
2018-01-22T07:45:43.856Z,97.11
2018-01-22T07:46:44.190Z,97.52
2018-01-22T07:47:43.922Z,97.71
2018-01-22T07:48:43.806Z,97.86
2018-01-22T07:49:43.894Z,97.59
2018-01-22T07:50:43.840Z,97.51
2018-01-22T07:51:43.834Z,97.5
2018-01-22T07:52:43.781Z,97.53
2018-01-22T07:53:43.869Z,97.35
2018-01-22T07:54:43.795Z,97.37
2018-01-22T07:55:44.085Z,97.36
2018-01-22T07:56:43.825Z,97.24
2018-01-22T07:57:43.888Z,97.21
2018-01-22T07:58:43.916Z,97.25
2018-01-22T07:59:43.895Z,97.2
2018-01-22T08:00:43.857Z,97.04
2018-01-22T08:01:43.919Z,96.9
2018-01-22T08:02:43.832Z,97.01
2018-01-22T08:04:43.842Z,97.39
2018-01-22T08:05:43.876Z,97.5
2018-01-22T08:06:43.882Z,97.42
2018-01-22T08:07:44.089Z,97.49
2018-01-22T08:08:43.945Z,97.53
2018-01-22T08:09:43.958Z,97.64
2018-01-22T08:10:44.041Z,97.79
2018-01-22T08:11:43.949Z,97.75
2018-01-22T08:12:43.960Z,97.63
2018-01-22T08:13:43.983Z,97.87
2018-01-22T08:14:44.088Z,97.53
2018-01-22T08:15:44.101Z,97.71
2018-01-22T08:18:44.645Z,97.97
2018-01-22T08:19:43.946Z,97.67
2018-01-22T08:20:44.002Z,97.97
2018-01-22T08:21:44.164Z,98.29
2018-01-22T08:22:43.944Z,98.21
2018-01-22T08:23:43.940Z,97.98
2018-01-22T08:24:43.923Z,97.69
2018-01-22T08:25:43.984Z,98.02
2018-01-22T08:26:43.943Z,98.07
2018-01-22T08:27:43.928Z,98.14
2018-01-22T08:28:43.960Z,97.75
2018-01-22T08:29:44.023Z,97.91
2018-01-22T08:30:43.982Z,98.36
2018-01-22T08:31:43.987Z,97.8
2018-01-22T08:32:44.003Z,98.17
2018-01-22T08:33:43.958Z,98.42
2018-01-22T08:34:43.944Z,98.86
2018-01-22T08:35:43.974Z,98.54
2018-01-22T08:36:43.966Z,98.39
2018-01-22T08:37:44.315Z,98.55
2018-01-22T08:38:44.315Z,99.2
2018-01-22T08:39:44.204Z,99.01
2018-01-22T08:40:44.158Z,98.82
2018-01-22T08:41:44.104Z,98.92
2018-01-22T08:42:44.242Z,98.49
2018-01-22T08:43:44.099Z,98.57
2018-01-22T08:44:44.158Z,98.58
2018-01-22T08:45:44.155Z,98.35
2018-01-22T08:46:44.081Z,98.5
2018-01-22T08:47:44.235Z,98.49
2018-01-22T08:48:44.144Z,98.52
2018-01-22T08:49:44.343Z,98.41
2018-01-22T08:50:44.100Z,98.28
2018-01-22T08:51:44.118Z,98.34
2018-01-22T08:52:44.798Z,98.17
2018-01-22T08:53:44.163Z,98.66
2018-01-22T08:54:44.140Z,98.25
2018-01-22T08:55:44.185Z,98.05
2018-01-22T08:56:44.198Z,98.28
2018-01-22T08:57:44.213Z,98.66
2018-01-22T08:58:44.288Z,98.35
2018-01-22T08:59:44.282Z,98.65
2018-01-22T09:00:44.217Z,98.45
2018-01-22T09:01:44.179Z,98.82
2018-01-22T09:02:44.192Z,98.58
2018-01-22T09:03:44.117Z,98.41
2018-01-22T09:04:44.242Z,98.57
2018-01-22T09:05:44.250Z,98.5
2018-01-22T09:06:44.313Z,98.5
2018-01-22T09:07:44.420Z,98.26
2018-01-22T09:08:44.365Z,98.46
2018-01-22T09:09:44.400Z,98.56
2018-01-22T09:10:44.200Z,98.53
2018-01-22T09:11:44.254Z,98.66
2018-01-22T09:12:44.262Z,98.38
2018-01-22T09:13:44.260Z,98.53
2018-01-22T09:14:44.320Z,98.51
2018-01-22T09:15:44.271Z,98.23
2018-01-22T09:16:44.278Z,98.74
2018-01-22T09:17:44.424Z,98.48
2018-01-22T09:18:44.401Z,99.09
2018-01-22T09:19:58.874Z,98.78
2018-01-22T09:20:44.435Z,98.5
2018-01-22T09:21:44.232Z,98.57
2018-01-22T09:22:44.181Z,98.57
2018-01-22T09:23:44.238Z,98.65
2018-01-22T09:24:44.307Z,98.93
2018-01-22T09:25:44.263Z,98.66
2018-01-22T09:26:44.295Z,98.8
2018-01-22T09:27:44.296Z,98.89
2018-01-22T09:28:44.228Z,98.77
2018-01-22T09:29:44.248Z,98.94
2018-01-22T09:30:44.321Z,99.23
2018-01-22T09:31:44.353Z,99.06
2018-01-22T09:32:44.242Z,99.15
2018-01-22T09:33:44.255Z,98.94
2018-01-22T09:34:44.270Z,98.96
2018-01-22T09:35:44.305Z,98.92
2018-01-22T09:36:44.442Z,98.84
2018-01-22T09:37:44.411Z,98.98
2018-01-22T09:38:44.429Z,98.58
2018-01-22T09:39:44.480Z,98.56
2018-01-22T09:40:44.548Z,98.39
2018-01-22T09:41:44.581Z,99.44
2018-01-22T09:42:44.490Z,99.06
2018-01-22T09:43:44.483Z,99.8
2018-01-22T09:44:44.385Z,99.21
2018-01-22T09:45:44.337Z,98.94
2018-01-22T09:46:44.337Z,98.7
2018-01-22T09:47:44.406Z,99.12
2018-01-22T09:48:44.462Z,99.47
2018-01-22T09:49:44.387Z,99.3
2018-01-22T09:50:44.386Z,99.08
2018-01-22T09:51:44.346Z,99.23
2018-01-22T09:52:44.347Z,99.38
2018-01-22T09:53:44.373Z,99.57
2018-01-22T09:54:44.382Z,99.72
2018-01-22T09:55:44.360Z,99.68
2018-01-22T09:56:44.399Z,98.97
2018-01-22T09:57:44.362Z,99.52
2018-01-22T09:58:44.407Z,100
2018-01-22T09:59:44.428Z,100
2018-01-22T10:00:44.571Z,99.75
2018-01-22T10:01:44.365Z,99.73
2018-01-22T10:02:44.425Z,100
2018-01-22T10:03:44.410Z,100
2018-01-22T10:04:44.405Z,100
2018-01-22T10:05:44.435Z,100
2018-01-22T10:06:44.534Z,99.86
2018-01-22T10:07:44.522Z,99.57
2018-01-22T10:08:44.601Z,99.57
2018-01-22T10:09:44.579Z,99.16
2018-01-22T10:10:44.520Z,99.38
2018-01-22T10:11:44.609Z,99.81
2018-01-22T10:12:44.532Z,100
2018-01-22T10:13:44.377Z,100
2018-01-22T10:14:44.438Z,100
2018-01-22T10:15:44.477Z,100
2018-01-22T10:16:44.513Z,100
2018-01-22T10:17:44.475Z,100
2018-01-22T10:18:44.554Z,100
2018-01-22T10:19:44.510Z,100
2018-01-22T10:20:44.545Z,100
2018-01-22T10:21:44.625Z,100
2018-01-22T10:22:44.462Z,100
2018-01-22T10:23:44.411Z,100
2018-01-22T10:24:44.492Z,100
2018-01-22T10:25:44.394Z,100
2018-01-22T10:26:44.712Z,100
2018-01-22T10:27:44.553Z,100
2018-01-22T10:28:44.446Z,100
2018-01-22T10:29:44.462Z,100
2018-01-22T10:30:44.431Z,100
2018-01-22T10:31:44.466Z,100
2018-01-22T10:32:45.447Z,100
2018-01-22T10:33:44.459Z,100
2018-01-22T10:34:44.434Z,100
2018-01-22T10:35:44.455Z,100
2018-01-22T10:36:44.485Z,100
2018-01-22T10:37:44.520Z,100
2018-01-22T10:38:44.474Z,100
2018-01-22T10:39:44.674Z,100
2018-01-22T10:40:44.578Z,100
2018-01-22T10:41:44.587Z,100
2018-01-22T10:42:44.530Z,100
2018-01-22T10:43:44.562Z,100
2018-01-22T10:44:44.737Z,100
2018-01-22T10:45:44.459Z,100
2018-01-22T10:46:44.453Z,100
2018-01-22T10:47:44.539Z,100
2018-01-22T10:48:44.491Z,100
2018-01-22T10:49:44.464Z,100
2018-01-22T10:50:44.497Z,100
2018-01-22T10:51:44.450Z,100
2018-01-22T10:52:44.532Z,100
2018-01-22T10:53:44.449Z,100
2018-01-22T10:54:44.456Z,100
2018-01-22T10:55:44.548Z,100
2018-01-22T10:56:44.468Z,100
2018-01-22T10:57:44.551Z,100
2018-01-22T10:58:44.442Z,100
2018-01-22T10:59:44.564Z,100
2018-01-22T11:00:44.669Z,100
2018-01-22T11:01:44.546Z,100
2018-01-22T11:02:44.502Z,100
2018-01-22T11:03:44.556Z,100
2018-01-22T11:04:44.488Z,100
2018-01-22T11:05:44.532Z,100
2018-01-22T11:06:44.562Z,100
2018-01-22T11:07:44.869Z,100
2018-01-22T11:08:44.059Z,100
2018-01-22T11:09:43.902Z,100
2018-01-22T11:10:43.838Z,100
2018-01-22T11:11:43.830Z,100
2018-01-22T11:12:43.866Z,100
2018-01-22T11:13:43.969Z,100
2018-01-22T11:14:43.903Z,100
2018-01-22T11:15:43.921Z,100
2018-01-22T11:16:43.843Z,100
2018-01-22T11:17:43.839Z,100
2018-01-22T11:18:43.870Z,100
2018-01-22T11:19:43.941Z,100
2018-01-22T11:20:43.828Z,100
2018-01-22T11:21:43.849Z,100
2018-01-22T11:22:43.887Z,100
2018-01-22T11:23:43.800Z,100
2018-01-22T11:24:43.850Z,100
2018-01-22T11:25:43.854Z,100
2018-01-22T11:26:43.899Z,100
2018-01-22T11:27:43.869Z,100
2018-01-22T11:28:43.938Z,100
2018-01-22T11:29:43.838Z,100
2018-01-22T11:30:43.874Z,100
2018-01-22T11:31:43.837Z,100
2018-01-22T11:32:43.839Z,100
2018-01-22T11:33:43.855Z,100
2018-01-22T11:34:44.182Z,100
2018-01-22T11:35:43.887Z,100
2018-01-22T11:36:43.840Z,100
2018-01-22T11:37:43.851Z,100
2018-01-22T11:38:43.944Z,100
2018-01-22T11:39:44.091Z,100
2018-01-22T11:40:43.933Z,100
2018-01-22T11:41:43.907Z,100
2018-01-22T11:42:43.988Z,100
2018-01-22T11:43:43.892Z,100
2018-01-22T11:44:43.976Z,100
2018-01-22T11:45:43.935Z,100
2018-01-22T11:46:44.019Z,100
2018-01-22T11:47:43.950Z,100
2018-01-22T11:48:43.981Z,100
2018-01-22T11:49:44.254Z,100
2018-01-22T11:50:43.911Z,100
2018-01-22T11:51:43.908Z,100
2018-01-22T11:52:43.913Z,100
2018-01-22T11:53:43.891Z,100
2018-01-22T11:54:43.988Z,100
2018-01-22T11:55:43.957Z,100
2018-01-22T11:56:43.938Z,100
2018-01-22T11:57:43.942Z,100
2018-01-22T11:58:43.987Z,100
2018-01-22T11:59:44.158Z,100
2018-01-22T12:00:44.033Z,100
2018-01-22T12:01:43.919Z,100
2018-01-22T12:02:43.967Z,100
2018-01-22T12:03:43.940Z,100
2018-01-22T12:04:44.013Z,100
2018-01-22T12:05:43.914Z,100
2018-01-22T12:06:44.010Z,100
2018-01-22T12:07:44.142Z,100
2018-01-22T12:08:44.516Z,100
2018-01-22T12:09:44.600Z,100
2018-01-22T12:10:44.472Z,100
2018-01-22T12:11:44.571Z,100
2018-01-22T12:12:44.588Z,100
2018-01-22T12:13:44.482Z,100
2018-01-22T12:14:44.982Z,100
2018-01-22T12:15:44.460Z,100
2018-01-22T12:16:44.501Z,100
2018-01-22T12:17:44.542Z,100
2018-01-22T12:18:44.536Z,100
2018-01-22T12:19:44.562Z,100
2018-01-22T12:20:44.559Z,100
2018-01-22T12:21:44.494Z,100
2018-01-22T12:22:44.610Z,100
2018-01-22T12:23:44.493Z,100
2018-01-22T12:24:44.499Z,99.72
2018-01-22T12:25:44.888Z,99.79
2018-01-22T12:26:44.553Z,99.74
2018-01-22T12:27:45.466Z,99.84
2018-01-22T12:28:44.504Z,99.73
2018-01-22T12:29:44.498Z,99.55
2018-01-22T12:30:44.529Z,99.77
2018-01-22T12:31:44.535Z,99.69
2018-01-22T12:32:44.633Z,99.67
2018-01-22T12:33:44.560Z,99.51
2018-01-22T12:34:44.501Z,99.83
2018-01-22T12:35:44.541Z,100
2018-01-22T12:36:44.515Z,100
2018-01-22T12:37:44.617Z,100
2018-01-22T12:38:44.664Z,100
2018-01-22T12:39:44.564Z,100
2018-01-22T12:40:44.587Z,100
2018-01-22T12:41:44.703Z,100
2018-01-22T12:42:44.740Z,100
2018-01-22T12:43:44.650Z,99.99
2018-01-22T12:44:44.728Z,100
2018-01-22T12:45:44.803Z,100
2018-01-22T12:46:44.718Z,100
2018-01-22T12:47:44.822Z,100
2018-01-22T12:48:44.639Z,100
2018-01-22T12:49:44.735Z,100
2018-01-22T12:50:44.587Z,100
2018-01-22T12:51:44.579Z,100
2018-01-22T12:52:44.645Z,100
2018-01-22T12:53:45.381Z,100
2018-01-22T12:54:44.624Z,100
2018-01-22T12:55:44.637Z,100
2018-01-22T12:56:44.639Z,100
2018-01-22T12:57:44.636Z,99.74
2018-01-22T12:58:44.626Z,99.85
2018-01-22T12:59:44.602Z,99.55
2018-01-22T13:00:44.597Z,99.3
2018-01-22T13:01:44.635Z,99.41
2018-01-22T13:02:44.627Z,99.28
2018-01-22T13:03:44.620Z,99.53
2018-01-22T13:04:44.599Z,99.25
2018-01-22T13:05:44.673Z,99.26
2018-01-22T13:06:44.574Z,99.49
2018-01-22T13:07:44.599Z,100
2018-01-22T13:08:44.870Z,99.87
2018-01-22T13:09:44.618Z,99.82
2018-01-22T13:10:44.682Z,100
2018-01-22T13:11:44.624Z,100
2018-01-22T13:12:44.699Z,100
2018-01-22T13:13:44.659Z,100
2018-01-22T13:14:44.632Z,99.97
2018-01-22T13:15:44.640Z,99.91
2018-01-22T13:16:44.635Z,100
2018-01-22T13:17:44.622Z,100
2018-01-22T13:18:44.796Z,100
2018-01-22T13:19:44.730Z,100
2018-01-22T13:20:44.659Z,100
2018-01-22T13:21:44.623Z,100
2018-01-22T13:22:44.644Z,100
2018-01-22T13:23:44.772Z,100
2018-01-22T13:24:44.753Z,100
2018-01-22T13:25:44.737Z,100
2018-01-22T13:26:44.714Z,100
2018-01-22T13:27:44.644Z,100
2018-01-22T13:28:44.829Z,100
2018-01-22T13:29:44.756Z,100
2018-01-22T13:30:44.684Z,100
2018-01-22T13:31:44.689Z,100
2018-01-22T13:32:44.628Z,100
2018-01-22T13:33:44.633Z,100
2018-01-22T13:34:44.722Z,100
2018-01-22T13:35:44.634Z,100
2018-01-22T13:36:44.808Z,99.87
2018-01-22T13:37:44.688Z,100
2018-01-22T13:38:44.821Z,100
2018-01-22T13:39:44.648Z,100
2018-01-22T13:40:44.671Z,99.99
2018-01-22T13:41:44.661Z,99.74
2018-01-22T13:42:44.687Z,99.58
2018-01-22T13:43:44.805Z,99.45